Time;durP1;ratioP1;P1;durP2;ratioP2;P2;SDS_P1;SDS_P2;PMS_P1;PMS_P2;Temp;Humidity;BMP_temperature;BMP_pressure;BME280_temperature;BME280_humidity;BME280_pressure;Samples;Min_cycle;Max_cycle;Signal;HPM_P1;HPM_P2
2021/11/02 00:02:33;;;;;;;;;39.80;33.40;;;;;15.81;43.58;97556.75;6286961;27;97551;-66
2021/11/02 00:05:36;;;;;;;;;44.25;34.25;;;;;15.80;43.67;97546.16;6280025;27;96716;-65
2021/11/02 00:08:39;;;;;;;;;39.00;32.00;;;;;15.75;44.06;97551.66;6289041;27;98037;-65
2021/11/02 00:11:43;;;;;;;;;36.60;32.00;;;;;15.72;43.85;97552.25;6253027;27;99525;-66
2021/11/02 00:14:47;;;;;;;;;39.25;33.25;;;;;15.67;43.95;97539.53;6259551;27;98498;-64
2021/11/02 00:17:54;;;;;;;;;35.00;32.00;;;;;15.63;43.90;97529.50;6270023;27;98466;-64
2021/11/02 00:21:00;;;;;;;;;38.00;32.00;;;;;15.59;44.06;97540.13;6262062;27;97134;-64
2021/11/02 00:24:13;;;;;;;;;39.00;33.00;;;;;15.60;44.00;97531.69;6286378;27;96893;-64
2021/11/02 00:27:16;;;;;;;;;39.00;33.00;;;;;15.58;44.02;97528.47;6278861;27;98077;-65
2021/11/02 00:30:22;;;;;;;;;42.00;34.00;;;;;15.55;44.07;97518.16;6260103;27;98440;-65
2021/11/02 00:33:25;;;;;;;;;38.60;33.00;;;;;15.52;43.63;97529.59;6264580;27;97314;-64
2021/11/02 00:36:28;;;;;;;;;40.00;32.00;;;;;15.48;44.03;97517.66;6270051;27;96989;-63
2021/11/02 00:39:31;;;;;;;;;39.20;32.60;;;;;15.33;44.18;97500.72;6272513;27;97472;-65
2021/11/02 00:42:38;;;;;;;;;41.60;34.60;;;;;15.50;44.33;97526.31;6288888;27;97521;-65
2021/11/02 00:45:44;;;;;;;;;43.50;35.00;;;;;15.52;44.01;97531.50;6271122;27;97099;-64
2021/11/02 00:48:48;;;;;;;;;41.00;33.50;;;;;15.54;43.65;97521.97;6271791;27;96487;-64
2021/11/02 00:51:53;;;;;;;;;42.00;33.00;;;;;15.53;43.61;97525.00;6263128;27;97389;-64
2021/11/02 00:54:57;;;;;;;;;39.20;32.60;;;;;15.56;42.76;97521.69;6272000;27;97036;-64
2021/11/02 00:58:02;;;;;;;;;41.80;33.20;;;;;15.54;42.76;97516.53;6287824;27;97562;-65
2021/11/02 01:01:07;;;;;;;;;37.00;33.00;;;;;15.50;42.95;97515.47;6253292;27;97133;-65
2021/11/02 01:04:12;;;;;;;;;41.00;34.00;;;;;15.42;42.86;97515.28;6287611;27;96519;-64
2021/11/02 01:07:19;;;;;;;;;44.80;33.60;;;;;15.37;43.25;97516.13;6288324;27;97651;-64
2021/11/02 01:10:24;;;;;;;;;40.00;33.00;;;;;15.38;43.20;97515.06;6289420;27;97043;-64
2021/11/02 01:13:28;;;;;;;;;33.75;31.00;;;;;15.39;43.27;97510.44;6287123;27;96654;-65
2021/11/02 01:16:35;;;;;;;;;40.80;32.80;;;;;15.35;43.39;97503.94;6263480;27;97012;-66
2021/11/02 01:19:38;;;;;;;;;42.50;33.75;;;;;15.34;43.38;97499.63;6269556;27;97434;-64
2021/11/02 01:22:44;;;;;;;;;38.00;33.00;;;;;15.35;43.42;97490.34;6261604;27;97807;-65
2021/11/02 01:25:51;;;;;;;;;36.33;32.00;;;;;15.23;43.56;97471.75;6264536;27;96505;-65
2021/11/02 01:28:55;;;;;;;;;33.20;30.00;;;;;15.37;43.48;97482.75;6272038;27;97508;-64
2021/11/02 01:32:02;;;;;;;;;36.00;32.00;;;;;15.32;43.48;97494.47;6288887;27;97442;-66
2021/11/02 01:35:13;;;;;;;;;32.60;30.00;;;;;15.31;43.75;97489.31;6272066;27;96975;-66
2021/11/02 01:38:23;;;;;;;;;36.00;31.60;;;;;15.30;43.81;97484.97;6271066;27;96514;-64
2021/11/02 01:41:38;;;;;;;;;37.50;31.75;;;;;15.26;43.96;97470.34;6263103;27;96686;-65
2021/11/02 01:44:42;;;;;;;;;36.50;31.50;;;;;15.33;44.04;97482.50;6249566;27;96612;-65
2021/11/02 01:47:50;;;;;;;;;34.00;30.00;;;;;15.23;43.90;97455.47;6260260;27;97214;-66
2021/11/02 01:51:01;;;;;;;;;34.80;30.00;;;;;15.39;44.00;97480.56;6272457;27;96700;-65
2021/11/02 01:54:09;;;;;;;;;31.00;28.20;;;;;15.43;43.88;97468.84;6270631;27;97419;-64
2021/11/02 01:57:15;;;;;;;;;33.50;30.00;;;;;15.49;43.79;97447.88;6270915;27;96883;-65
2021/11/02 02:00:21;;;;;;;;;33.50;30.25;;;;;15.48;43.82;97428.06;6267290;27;96558;-65
2021/11/02 02:03:51;;;;;;;;;32.40;27.40;;;;;15.57;43.76;97439.13;6259624;27;97533;-66
2021/11/02 02:07:09;;;;;;;;;28.00;25.00;;;;;15.59;43.97;97448.56;6266250;27;97426;-67
2021/11/02 02:10:21;;;;;;;;;29.00;26.60;;;;;15.61;43.79;97429.28;6268967;27;97315;-66
2021/11/02 02:13:36;;;;;;;;;32.40;29.40;;;;;15.69;43.73;97433.25;6250711;27;98373;-65
2021/11/02 02:16:46;;;;;;;;;26.20;24.00;;;;;15.82;43.52;97435.28;6253518;27;97962;-64
2021/11/02 02:19:57;;;;;;;;;28.40;26.60;;;;;15.92;43.17;97427.81;6271113;27;97000;-64
2021/11/02 02:23:24;;;;;;;;;32.00;28.00;;;;;15.95;42.93;97423.69;6260460;27;96870;-64
2021/11/02 02:26:39;;;;;;;;;28.00;25.00;;;;;16.01;42.82;97408.94;6252482;27;97347;-64
2021/11/02 02:29:47;;;;;;;;;32.00;27.50;;;;;16.04;42.82;97414.59;6265527;27;97538;-64
2021/11/02 02:32:53;;;;;;;;;33.00;30.60;;;;;15.96;43.25;97417.97;6252112;27;97212;-65
2021/11/02 02:35:58;;;;;;;;;33.00;30.00;;;;;15.96;43.29;97423.41;6251206;27;97409;-65
2021/11/02 02:39:10;;;;;;;;;33.00;30.00;;;;;15.95;43.59;97421.78;6263586;27;97603;-65
2021/11/02 02:42:19;;;;;;;;;35.00;31.20;;;;;15.91;43.98;97422.66;6275457;27;97180;-66
2021/11/02 02:45:26;;;;;;;;;34.40;30.40;;;;;15.88;44.08;97418.63;6262115;27;97217;-64
2021/11/02 02:48:31;;;;;;;;;36.40;32.40;;;;;15.85;44.14;97429.25;6241882;27;97681;-65
2021/11/02 02:51:36;;;;;;;;;39.25;32.50;;;;;15.79;44.12;97423.06;6277281;27;97140;-64
2021/11/02 02:54:40;;;;;;;;;35.60;31.60;;;;;15.78;44.16;97429.63;6264344;27;96542;-65
2021/11/02 02:57:45;;;;;;;;;36.60;32.00;;;;;15.74;44.21;97430.47;6263438;27;97554;-64
2021/11/02 03:00:53;;;;;;;;;39.40;32.60;;;;;15.71;44.50;97425.63;6275377;27;98171;-64
2021/11/02 03:04:00;;;;;;;;;36.20;32.00;;;;;15.71;44.54;97422.91;6249467;27;96794;-64
2021/11/02 03:07:04;;;;;;;;;33.80;30.80;;;;;15.71;44.58;97431.06;6247089;27;97042;-65
2021/11/02 03:10:12;;;;;;;;;40.25;33.00;;;;;15.70;44.59;97432.97;6258854;27;97445;-65
2021/11/02 03:13:19;;;;;;;;;37.80;33.00;;;;;15.68;44.46;97416.16;6268883;27;97431;-65
2021/11/02 03:16:38;;;;;;;;;38.60;33.00;;;;;15.67;44.50;97421.88;6268919;27;97041;-64
2021/11/02 03:50:44;;;;;;;;;35.50;31.25;;;;;15.43;44.52;97406.38;6264545;27;96664;-65
2021/11/02 03:57:29;;;;;;;;;37.40;30.40;;;;;15.44;44.62;97409.91;6252298;27;99415;-66
2021/11/02 04:01:00;;;;;;;;;41.00;32.00;;;;;15.43;45.03;97400.94;6265652;27;97199;-65
2021/11/02 04:24:51;;;;;;;;;33.80;29.00;;;;;15.12;46.63;97414.03;6261344;27;97064;-65
2021/11/02 04:28:23;;;;;;;;;37.40;32.00;;;;;15.15;46.85;97404.47;6284356;27;96917;-65
2021/11/02 04:32:00;;;;;;;;;35.60;32.00;;;;;15.08;46.36;97391.28;6246885;27;97421;-64
2021/11/02 04:35:20;;;;;;;;;35.40;31.80;;;;;15.17;46.75;97399.59;6265068;27;96766;-65
2021/11/02 05:09:18;;;;;;;;;35.80;31.00;;;;;14.99;45.45;97354.19;6234841;27;97076;-66
2021/11/02 05:47:30;;;;;;;;;36.80;31.40;;;;;14.79;46.95;97311.78;6246568;27;97537;-64
2021/11/02 05:50:58;;;;;;;;;33.40;30.00;;;;;14.83;47.05;97326.41;6246197;27;98393;-63
2021/11/02 05:57:27;;;;;;;;;34.00;29.00;;;;;14.74;47.02;97330.81;6233872;27;98616;-66
2021/11/02 06:00:55;;;;;;;;;32.80;30.00;;;;;14.80;47.29;97326.16;6268793;27;96538;-65
2021/11/02 06:04:29;;;;;;;;;31.60;29.00;;;;;14.74;47.42;97330.81;6251936;27;97140;-66
2021/11/02 06:07:51;;;;;;;;;31.50;26.75;;;;;14.72;47.62;97338.44;6267596;27;97412;-66
2021/11/02 06:11:10;;;;;;;;;33.00;28.00;;;;;14.67;47.94;97336.56;6247264;27;97316;-67
2021/11/02 06:28:12;;;;;;;;;30.00;28.50;;;;;14.52;49.09;97358.41;6278089;27;96681;-67
2021/11/02 06:31:19;;;;;;;;;33.00;30.00;;;;;14.42;49.40;97363.09;6252250;27;97806;-68
2021/11/02 06:34:33;;;;;;;;;32.00;28.60;;;;;14.35;49.80;97366.13;6265879;27;97800;-68
2021/11/02 06:44:38;;;;;;;;;32.40;30.00;;;;;14.52;49.37;97366.53;6280495;27;96525;-67
2021/11/02 06:48:04;;;;;;;;;32.00;27.40;;;;;14.58;49.29;97364.59;6285623;27;97591;-66
2021/11/02 06:55:01;;;;;;;;;29.00;26.40;;;;;14.66;49.15;97374.84;6257903;27;96785;-67
2021/11/02 06:58:28;;;;;;;;;36.00;30.00;;;;;14.64;49.26;97375.13;6258739;27;96583;-69
2021/11/02 07:18:57;;;;;;;;;35.00;28.00;;;;;15.17;48.47;97377.88;6189614;27;99645;-67
2021/11/02 07:22:13;;;;;;;;;29.50;26.50;;;;;15.22;48.62;97385.97;6274063;27;97444;-64
2021/11/02 07:25:28;;;;;;;;;32.00;29.00;;;;;15.30;47.84;97385.31;6274447;27;97073;-66
2021/11/02 08:46:51;;;;;;;;;37.00;32.00;;;;;15.67;50.04;97368.38;6287691;27;96726;-70
2021/11/02 08:49:55;;;;;;;;;44.00;35.00;;;;;15.68;50.40;97372.69;6283179;27;97949;-65
2021/11/02 08:52:59;;;;;;;;;38.20;33.00;;;;;15.69;50.06;97374.28;6288851;27;97170;-65
2021/11/02 08:56:04;;;;;;;;;38.00;32.60;;;;;15.65;50.09;97367.03;6247181;27;97577;-66
2021/11/02 08:59:08;;;;;;;;;38.50;32.75;;;;;15.70;50.06;97366.97;6264074;27;97791;-67
2021/11/02 09:02:26;;;;;;;;;35.00;32.00;;;;;15.71;50.21;97369.41;6271563;27;96573;-69
2021/11/02 09:05:34;;;;;;;;;37.00;31.60;;;;;15.68;50.28;97375.41;6289099;27;97208;-67
2021/11/02 09:08:41;;;;;;;;;40.20;33.00;;;;;15.59;50.45;97371.72;6287904;27;97452;-66
2021/11/02 09:11:46;;;;;;;;;42.50;33.00;;;;;15.60;50.80;97368.72;6244075;27;96929;-69
2021/11/02 09:14:50;;;;;;;;;39.00;32.00;;;;;15.64;50.77;97376.28;6268858;27;97130;-70
2021/11/02 09:17:56;;;;;;;;;37.00;30.75;;;;;15.66;50.81;97372.19;6228181;27;97873;-69
2021/11/02 09:20:59;;;;;;;;;40.00;33.00;;;;;15.69;50.96;97370.78;6255776;27;97388;-70
2021/11/02 09:24:03;;;;;;;;;39.00;34.00;;;;;15.75;50.98;97380.47;6271660;27;97012;-67
2021/11/02 09:27:08;;;;;;;;;42.00;33.50;;;;;15.76;51.16;97376.66;6275147;27;96579;-67
2021/11/02 09:30:13;;;;;;;;;38.75;33.00;;;;;15.78;51.26;97377.19;6277909;27;97266;-67
2021/11/02 09:33:18;;;;;;;;;42.80;35.00;;;;;15.76;51.35;97382.09;6260581;27;97022;-67
2021/11/02 09:36:26;;;;;;;;;38.60;33.00;;;;;15.69;51.27;97371.59;6269662;27;97330;-69
2021/11/02 09:39:38;;;;;;;;;40.40;33.00;;;;;15.70;51.48;97377.81;6280987;27;97453;-68
2021/11/02 09:43:22;;;;;;;;;43.00;34.40;;;;;15.68;51.58;97371.91;6268121;27;99623;-64
2021/11/02 09:46:53;;;;;;;;;44.00;34.00;;;;;15.66;51.97;97379.50;6274415;27;96634;-67
2021/11/02 09:50:19;;;;;;;;;46.00;36.40;;;;;15.67;51.53;97383.84;6249132;27;97246;-66
2021/11/02 09:54:06;;;;;;;;;44.40;35.00;;;;;15.70;51.29;97384.06;6280771;27;97152;-67
2021/11/02 09:57:29;;;;;;;;;40.00;35.00;;;;;15.72;51.20;97379.16;6246601;27;97199;-67
2021/11/02 10:00:53;;;;;;;;;47.00;37.60;;;;;15.74;51.36;97379.66;6285330;27;97119;-70
2021/11/02 10:04:34;;;;;;;;;44.00;35.60;;;;;15.79;51.14;97385.03;6263241;27;99630;-66
2021/11/02 10:08:04;;;;;;;;;42.40;35.00;;;;;15.81;51.66;97379.31;6273129;27;97690;-68
2021/11/02 10:11:23;;;;;;;;;48.00;37.00;;;;;15.76;51.47;97384.81;6255139;27;97400;-67
2021/11/02 10:15:02;;;;;;;;;43.80;35.20;;;;;15.67;51.50;97386.56;6287153;27;97108;-69
2021/11/02 10:18:45;;;;;;;;;41.60;33.60;;;;;15.73;51.42;97378.06;6275677;27;97410;-67
2021/11/02 10:22:36;;;;;;;;;40.20;34.20;;;;;15.75;51.33;97391.34;6258545;27;97465;-67
2021/11/02 10:26:26;;;;;;;;;42.50;35.00;;;;;15.50;51.78;97385.09;6250615;27;96915;-67
2021/11/02 10:30:04;;;;;;;;;43.80;35.00;;;;;15.46;52.06;97378.63;6154607;27;97768;-66
2021/11/02 10:33:19;;;;;;;;;46.60;36.00;;;;;15.35;52.39;97387.97;6264411;27;97274;-66
2021/11/02 10:36:35;;;;;;;;;45.20;35.60;;;;;15.29;52.46;97386.44;6269554;27;97312;-69
2021/11/02 10:40:03;;;;;;;;;43.60;35.20;;;;;15.29;52.71;97385.63;6268934;27;97830;-69
2021/11/02 10:43:31;;;;;;;;;41.20;33.20;;;;;15.17;52.46;97375.97;6243699;27;97604;-69
2021/11/02 10:46:44;;;;;;;;;44.00;36.25;;;;;15.08;52.94;97377.69;6229703;27;96792;-69
2021/11/02 10:50:05;;;;;;;;;41.67;35.00;;;;;14.92;53.30;97378.13;6249505;27;97098;-69
2021/11/02 10:53:10;;;;;;;;;40.40;35.00;;;;;14.94;53.41;97378.66;6248784;27;97864;-68
2021/11/02 10:56:25;;;;;;;;;45.60;36.60;;;;;15.02;53.50;97375.31;6251609;27;97216;-68
2021/11/02 10:59:32;;;;;;;;;38.60;33.00;;;;;15.15;53.33;97374.63;6251651;27;99556;-67
2021/11/02 11:02:37;;;;;;;;;37.75;32.50;;;;;15.26;52.60;97384.28;6250023;27;97056;-65
2021/11/02 11:05:45;;;;;;;;;40.00;32.00;;;;;15.34;52.65;97374.72;6256230;27;96644;-67
2021/11/02 11:08:49;;;;;;;;;39.00;32.80;;;;;15.40;52.89;97370.81;6242773;27;98697;-66
2021/11/02 11:11:56;;;;;;;;;40.00;33.00;;;;;15.49;52.50;97372.59;6250158;27;96930;-67
2021/11/02 11:15:03;;;;;;;;;41.40;33.00;;;;;15.50;53.02;97363.38;6257137;27;97450;-69
2021/11/02 11:18:08;;;;;;;;;38.50;33.00;;;;;15.64;52.64;97368.16;6251821;27;97159;-69
2021/11/02 11:21:12;;;;;;;;;40.20;33.60;;;;;15.77;52.30;97362.81;6250517;27;96994;-67
2021/11/02 11:24:20;;;;;;;;;38.25;32.00;;;;;15.86;52.20;97371.91;6238417;27;96836;-67
2021/11/02 11:27:27;;;;;;;;;37.40;32.00;;;;;15.90;52.10;97366.69;6258847;27;98728;-68
2021/11/02 11:30:34;;;;;;;;;37.40;31.00;;;;;15.95;52.01;97367.44;6258860;27;98886;-65
2021/11/02 11:33:40;;;;;;;;;36.40;30.20;;;;;16.01;51.88;97363.56;6242108;27;96766;-65
2021/11/02 11:36:50;;;;;;;;;31.40;30.00;;;;;16.06;52.03;97370.81;6258963;27;97440;-68
2021/11/02 11:40:01;;;;;;;;;31.00;28.00;;;;;16.06;51.91;97365.38;6249514;27;97511;-70
2021/11/02 11:43:07;;;;;;;;;34.60;30.00;;;;;16.10;51.87;97362.88;6272291;27;96897;-66
2021/11/02 11:46:12;;;;;;;;;32.50;30.00;;;;;16.11;52.06;97354.44;6277822;27;96618;-65
2021/11/02 11:49:24;;;;;;;;;33.60;30.60;;;;;16.18;51.75;97352.16;6282770;27;97032;-66
2021/11/02 11:52:27;;;;;;;;;38.00;32.00;;;;;16.18;51.71;97349.44;6277679;27;97216;-67
2021/11/02 11:55:34;;;;;;;;;35.00;31.25;;;;;16.19;51.90;97356.50;6278277;27;96647;-70
2021/11/02 11:58:47;;;;;;;;;36.00;31.60;;;;;16.17;52.05;97358.72;6254982;27;97963;-69
2021/11/02 12:01:58;;;;;;;;;32.60;30.00;;;;;16.21;51.98;97351.56;6274820;27;98008;-68
2021/11/02 12:05:05;;;;;;;;;37.00;31.00;;;;;16.22;51.80;97350.47;6251836;27;96729;-69
2021/11/02 12:08:16;;;;;;;;;36.60;31.60;;;;;16.21;52.06;97342.59;6276114;27;96543;-67
2021/11/02 12:11:21;;;;;;;;;37.60;32.00;;;;;16.31;52.00;97348.69;6270104;27;97341;-71
2021/11/02 12:14:30;;;;;;;;;38.00;33.00;;;;;16.33;51.69;97360.06;6257371;27;97783;-67
2021/11/02 12:17:34;;;;;;;;;37.00;32.00;;;;;16.33;51.67;97365.50;6257425;27;98366;-65
2021/11/02 12:20:38;;;;;;;;;42.40;33.00;;;;;16.38;51.89;97356.47;6285218;27;98162;-67
2021/11/02 12:23:45;;;;;;;;;42.00;34.00;;;;;16.41;51.66;97366.78;6274272;27;98031;-66
2021/11/02 12:26:50;;;;;;;;;41.00;34.00;;;;;16.33;51.46;97351.09;6285509;27;97524;-67
2021/11/02 12:29:55;;;;;;;;;37.00;32.80;;;;;16.35;51.69;97360.59;6263990;27;97171;-70
2021/11/02 12:32:59;;;;;;;;;39.20;32.60;;;;;16.40;51.74;97368.69;6283132;27;96572;-68
2021/11/02 12:36:05;;;;;;;;;40.20;32.00;;;;;16.40;51.55;97360.53;6279557;27;97237;-68
2021/11/02 12:39:09;;;;;;;;;36.40;32.00;;;;;16.39;51.34;97363.53;6269744;27;98019;-68
2021/11/02 12:42:13;;;;;;;;;40.00;32.80;;;;;16.39;51.28;97360.81;6274939;27;97453;-68
2021/11/02 12:45:22;;;;;;;;;39.00;32.50;;;;;16.38;51.30;97351.84;6272334;27;97722;-68
2021/11/02 12:48:26;;;;;;;;;37.60;33.00;;;;;16.34;51.35;97348.09;6270705;27;97142;-67
2021/11/02 12:51:55;;;;;;;;;36.40;32.80;;;;;16.31;51.36;97356.06;6281461;27;97890;-66
2021/11/02 12:55:04;;;;;;;;;41.00;33.00;;;;;16.31;51.28;97351.41;6271426;27;97378;-67
2021/11/02 12:58:17;;;;;;;;;39.50;33.00;;;;;16.32;51.41;97353.00;6264207;27;97096;-66
2021/11/02 13:01:36;;;;;;;;;36.00;31.75;;;;;16.33;51.36;97337.50;6275560;27;96644;-68
2021/11/02 13:04:42;;;;;;;;;39.60;32.40;;;;;16.35;51.28;97338.03;6260074;27;97033;-66
2021/11/02 13:08:03;;;;;;;;;36.40;32.00;;;;;16.31;51.29;97337.00;6275801;27;97635;-69
2021/11/02 13:11:09;;;;;;;;;32.00;28.80;;;;;16.19;51.31;97340.19;6267021;27;97194;-67
2021/11/02 13:14:16;;;;;;;;;30.20;27.60;;;;;16.18;51.41;97327.69;6263462;27;96872;-69
2021/11/02 13:17:25;;;;;;;;;39.00;33.00;;;;;16.14;51.67;97329.38;6281006;27;96507;-67
2021/11/02 13:20:33;;;;;;;;;34.50;30.00;;;;;16.09;51.84;97336.78;6284791;27;96559;-68
2021/11/02 13:23:43;;;;;;;;;38.60;30.60;;;;;16.12;51.69;97350.63;6279828;27;97226;-70
2021/11/02 13:26:49;;;;;;;;;31.40;28.00;;;;;16.07;51.49;97345.25;6242024;27;97084;-67
2021/11/02 13:29:53;;;;;;;;;33.25;30.00;;;;;16.08;51.45;97348.78;6266441;27;96641;-69
2021/11/02 13:33:01;;;;;;;;;34.00;30.00;;;;;16.04;51.76;97354.81;6279223;27;97829;-69
2021/11/02 13:36:06;;;;;;;;;35.40;29.40;;;;;16.04;51.97;97354.81;6282068;27;97963;-66
2021/11/02 13:39:12;;;;;;;;;31.00;28.40;;;;;16.08;51.71;97348.78;6264294;27;97016;-68
2021/11/02 13:42:15;;;;;;;;;34.00;29.00;;;;;16.08;51.59;97343.34;6268056;27;99875;-66
2021/11/02 13:45:23;;;;;;;;;32.00;28.00;;;;;16.07;51.59;97344.47;6253940;27;97626;-66
2021/11/02 13:48:30;;;;;;;;;28.00;26.00;;;;;16.02;51.61;97353.50;6270056;27;96927;-69
2021/11/02 13:51:33;;;;;;;;;27.20;25.60;;;;;16.02;51.61;97348.06;6259439;27;97824;-67
2021/11/02 13:54:37;;;;;;;;;30.00;28.00;;;;;15.99;51.70;97356.78;6283718;27;97144;-66
2021/11/02 13:57:41;;;;;;;;;34.00;29.00;;;;;15.98;51.78;97355.97;6275460;27;99434;-67
2021/11/02 14:00:46;;;;;;;;;29.20;26.00;;;;;15.96;51.91;97355.47;6279550;27;97317;-69
2021/11/02 14:03:57;;;;;;;;;32.00;29.00;;;;;15.99;51.89;97357.59;6261103;27;99466;-67
2021/11/02 14:07:04;;;;;;;;;32.00;30.00;;;;;16.00;52.14;97358.41;6253944;27;97955;-70
2021/11/02 14:10:10;;;;;;;;;34.00;30.00;;;;;16.00;52.23;97361.13;6284024;27;97432;-68
2021/11/02 14:13:14;;;;;;;;;33.40;30.00;;;;;16.04;52.01;97352.09;6245616;27;97560;-68
2021/11/02 14:16:29;;;;;;;;;31.00;29.50;;;;;16.06;51.97;97353.72;6268975;27;97019;-69
2021/11/02 14:19:43;;;;;;;;;33.00;30.00;;;;;16.04;51.90;97360.25;6255458;27;96929;-64
2021/11/02 14:22:49;;;;;;;;;33.40;30.00;;;;;16.04;51.90;97356.72;6256510;27;97444;-63
2021/11/02 14:25:52;;;;;;;;;32.00;28.00;;;;;16.05;51.79;97350.19;6272105;27;97408;-64
2021/11/02 14:28:57;;;;;;;;;29.75;27.00;;;;;16.04;51.97;97351.28;6258116;27;97707;-64
2021/11/02 14:32:01;;;;;;;;;34.40;31.00;;;;;16.03;51.94;97352.38;6270864;27;96653;-66
2021/11/02 14:35:07;;;;;;;;;34.00;30.80;;;;;15.97;51.77;97356.28;6285740;27;97596;-65
2021/11/02 14:38:12;;;;;;;;;35.40;31.00;;;;;15.95;51.82;97358.47;6284968;27;97822;-63
2021/11/02 14:41:32;;;;;;;;;37.00;31.00;;;;;15.93;51.81;97352.53;6271064;27;97462;-64
2021/11/02 14:44:49;;;;;;;;;38.20;32.20;;;;;15.96;51.78;97358.19;6287297;27;97470;-66
2021/11/02 14:47:52;;;;;;;;;39.60;33.00;;;;;15.93;51.78;97357.97;6287906;27;97546;-66
2021/11/02 14:50:57;;;;;;;;;34.40;31.40;;;;;15.91;51.86;97352.00;6286374;27;96713;-67
2021/11/02 14:54:21;;;;;;;;;35.00;31.00;;;;;15.93;51.64;97357.97;6252293;27;98337;-64
2021/11/02 14:57:54;;;;;;;;;35.00;30.25;;;;;15.88;51.66;97372.41;6288559;27;96563;-66
2021/11/02 15:00:57;;;;;;;;;35.33;31.33;;;;;15.89;51.75;97367.78;6271666;27;97473;-67
2021/11/02 15:04:04;;;;;;;;;38.80;32.80;;;;;15.84;51.94;97365.94;6270666;27;96994;-66
2021/11/02 15:07:10;;;;;;;;;36.00;32.00;;;;;15.81;52.15;97360.31;6280095;27;97459;-64
2021/11/02 15:10:16;;;;;;;;;39.00;32.40;;;;;15.79;52.25;97355.16;6248812;27;97061;-65
2021/11/02 15:13:23;;;;;;;;;40.20;32.00;;;;;15.80;52.33;97362.22;6288134;27;96369;-66
2021/11/02 15:16:27;;;;;;;;;39.40;32.00;;;;;15.82;52.13;97368.16;6286853;27;97471;-67
2021/11/02 15:19:33;;;;;;;;;37.50;32.00;;;;;15.82;52.33;97365.44;6286709;27;97428;-65
2021/11/02 15:22:37;;;;;;;;;36.00;32.00;;;;;15.78;52.48;97369.03;6251203;27;97246;-66
2021/11/02 15:25:46;;;;;;;;;38.50;32.00;;;;;15.81;52.30;97382.84;6271665;27;96538;-65
2021/11/02 15:28:51;;;;;;;;;39.40;33.40;;;;;15.69;52.40;97389.78;6251695;27;97059;-66
2021/11/02 15:32:02;;;;;;;;;37.00;32.00;;;;;15.66;52.55;97380.31;6260512;27;97496;-66
2021/11/02 15:35:10;;;;;;;;;37.00;32.00;;;;;15.66;52.71;97382.22;6260061;27;97490;-64
2021/11/02 15:38:15;;;;;;;;;34.33;31.33;;;;;15.67;52.67;97375.69;6281998;27;96573;-64
2021/11/02 15:41:22;;;;;;;;;38.20;33.20;;;;;15.71;52.81;97374.81;6250871;27;98479;-64
2021/11/02 15:44:28;;;;;;;;;37.00;32.00;;;;;15.72;52.61;97372.91;6266974;27;96741;-66
2021/11/02 15:47:33;;;;;;;;;39.50;32.75;;;;;15.72;52.54;97381.06;6287038;27;98261;-65
2021/11/02 15:50:41;;;;;;;;;36.25;32.00;;;;;15.79;52.27;97373.34;6287055;27;96771;-66
2021/11/02 15:53:46;;;;;;;;;41.50;32.00;;;;;15.81;52.32;97382.03;6284818;27;96654;-66
2021/11/02 15:56:49;;;;;;;;;36.50;32.50;;;;;15.80;52.33;97374.97;6267746;27;96532;-66
2021/11/02 16:00:03;;;;;;;;;37.60;32.40;;;;;15.80;52.51;97373.06;6287662;27;96617;-65
2021/11/02 16:03:08;;;;;;;;;36.50;31.25;;;;;15.85;52.48;97372.19;6286393;27;96895;-64
2021/11/02 16:06:17;;;;;;;;;34.40;31.00;;;;;15.86;52.43;97371.09;6264101;27;97046;-65
2021/11/02 16:09:22;;;;;;;;;36.00;31.40;;;;;15.87;52.64;97370.81;6268928;27;96817;-65
2021/11/02 16:12:30;;;;;;;;;36.20;30.00;;;;;15.89;52.52;97367.78;6287494;27;96851;-66
2021/11/02 16:15:35;;;;;;;;;38.00;32.00;;;;;15.91;52.52;97371.03;6280155;27;96983;-64
2021/11/02 16:18:39;;;;;;;;;36.80;31.80;;;;;15.88;52.58;97364.25;6269086;27;97180;-66
2021/11/02 16:21:47;;;;;;;;;34.60;30.00;;;;;15.87;52.65;97368.09;6275697;27;96700;-67
2021/11/02 16:25:06;;;;;;;;;36.00;32.00;;;;;15.91;52.48;97368.31;6269782;27;97010;-66
2021/11/02 16:28:19;;;;;;;;;36.00;31.00;;;;;15.83;52.68;97360.84;6270257;27;97459;-65
2021/11/02 16:31:24;;;;;;;;;33.80;29.40;;;;;15.91;52.36;97362.88;6277491;27;97526;-63
2021/11/02 16:34:28;;;;;;;;;33.20;30.20;;;;;15.92;52.31;97370.75;6276763;27;97484;-66
2021/11/02 16:37:34;;;;;;;;;34.00;30.00;;;;;15.91;52.37;97369.13;6270189;27;97431;-66
2021/11/02 16:40:44;;;;;;;;;34.00;30.00;;;;;15.92;52.30;97369.94;6278649;27;97397;-65
2021/11/02 16:43:50;;;;;;;;;31.80;30.00;;;;;15.90;52.40;97372.94;6269797;27;97487;-66
2021/11/02 16:47:06;;;;;;;;;31.00;28.50;;;;;15.92;52.29;97378.09;6275524;27;97499;-66
2021/11/02 16:50:09;;;;;;;;;37.60;31.60;;;;;15.91;52.39;97380.00;6272835;27;96677;-64
2021/11/02 16:53:17;;;;;;;;;34.75;32.00;;;;;15.93;52.36;97390.59;6264109;27;98134;-65
2021/11/02 16:56:25;;;;;;;;;36.40;31.40;;;;;15.93;52.28;97380.50;6276072;27;97338;-66
2021/11/02 16:59:50;;;;;;;;;34.00;31.00;;;;;15.96;52.28;97395.44;6262848;27;98513;-65
2021/11/02 17:03:07;;;;;;;;;35.00;30.00;;;;;15.93;52.27;97398.75;6256515;27;96691;-66
2021/11/02 17:06:17;;;;;;;;;39.40;32.00;;;;;15.90;52.54;97421.03;6276001;27;97275;-65
2021/11/02 17:09:24;;;;;;;;;33.60;31.80;;;;;15.89;52.46;97420.25;6269882;27;97737;-66
2021/11/02 17:12:29;;;;;;;;;36.00;31.00;;;;;15.91;52.45;97417.25;6282083;27;96633;-65
2021/11/02 17:15:35;;;;;;;;;38.00;31.00;;;;;15.92;52.54;97424.28;6290693;27;97066;-66
2021/11/02 17:18:46;;;;;;;;;32.60;29.80;;;;;15.91;52.46;97426.19;6270071;27;96837;-67
2021/11/02 17:21:51;;;;;;;;;29.60;26.00;;;;;15.91;52.32;97430.81;6282099;27;96462;-66
2021/11/02 17:24:55;;;;;;;;;33.00;29.40;;;;;15.87;52.43;97440.66;6255610;27;97239;-65
2021/11/02 17:28:00;;;;;;;;;31.00;29.00;;;;;15.87;52.54;97436.03;6277866;27;96713;-65
2021/11/02 17:31:05;;;;;;;;;30.00;28.00;;;;;15.88;52.38;97429.47;6257101;27;96838;-67
2021/11/02 18:36:36;;;;;;;;;21.40;19.60;;;;;15.64;52.90;97465.94;7284741;22;97435;-67
2021/11/02 18:39:40;;;;;;;;;29.00;25.40;;;;;15.59;52.78;97466.78;6161412;28;96709;-67
2021/11/02 18:42:45;;;;;;;;;24.00;21.50;;;;;15.47;52.96;97450.06;6147416;28;97048;-69
2021/11/02 18:45:49;;;;;;;;;24.25;23.25;;;;;15.52;53.10;97482.63;6161381;28;97186;-68
2021/11/02 18:48:53;;;;;;;;;20.80;19.20;;;;;15.54;53.10;97480.44;6145220;28;96884;-69
2021/11/02 18:51:58;;;;;;;;;22.60;21.40;;;;;15.55;52.79;97480.13;6154701;28;96664;-67
2021/11/02 18:55:01;;;;;;;;;23.00;21.25;;;;;15.54;52.66;97480.44;6147216;28;97288;-67
2021/11/02 18:58:05;;;;;;;;;22.00;20.60;;;;;15.47;52.71;97477.22;6134778;28;96674;-69
2021/11/02 19:01:09;;;;;;;;;23.25;21.00;;;;;15.43;52.70;97482.41;6143002;28;97080;-69
2021/11/02 19:04:14;;;;;;;;;22.00;21.00;;;;;15.46;52.73;97479.13;6128749;28;96836;-69
2021/11/02 19:07:19;;;;;;;;;22.80;20.20;;;;;15.37;52.84;97493.59;6131398;28;96586;-67
2021/11/02 19:10:22;;;;;;;;;23.00;22.00;;;;;15.29;53.12;97486.91;6124969;28;96739;-69
2021/11/02 19:13:26;;;;;;;;;22.80;20.20;;;;;15.28;53.11;97490.69;6130826;28;97437;-67
2021/11/02 19:16:30;;;;;;;;;24.00;22.50;;;;;15.15;53.27;97491.34;6147623;28;97382;-67
2021/11/02 19:19:34;;;;;;;;;25.00;23.00;;;;;15.13;53.39;97499.78;6125906;28;97178;-67
2021/11/02 19:22:39;;;;;;;;;26.60;25.00;;;;;15.08;53.07;97491.69;6130264;28;96480;-69
2021/11/02 19:25:42;;;;;;;;;24.20;22.40;;;;;15.09;53.66;97496.03;6128348;28;97451;-68
2021/11/02 19:28:45;;;;;;;;;23.00;22.00;;;;;15.07;53.25;97495.50;6131624;28;97129;-67
2021/11/02 19:31:49;;;;;;;;;27.50;26.00;;;;;15.03;53.46;97501.78;6121377;28;97024;-67
2021/11/02 19:34:52;;;;;;;;;27.00;25.00;;;;;14.88;53.68;97496.47;6119620;28;96750;-69
2021/11/02 19:37:57;;;;;;;;;28.20;25.20;;;;;14.76;54.01;97504.16;6120998;28;97395;-67
2021/11/02 19:41:00;;;;;;;;;27.00;24.60;;;;;14.82;53.80;97509.25;6129771;28;97995;-67